To NAV CANADA Home Page Login to a new session Search on AWWS site Disclaimer Vers la page française équivalente Tips FAQ What's new on the site To the Forecasts and Observations / NOTAM section To "File a Flight Plan" website Publications and other links Update of the User's profile FIC Telephone Numbers My Weather Data Folder Route Weather Data Regional Weather Data Local Weather Data To the Forecasts and Observations / NOTAM section
Request Generated 11/13/2018 at 18:43:08 UTC . Weather information available at that time is displayed.

METAR/TAF

SANIKILUAQ/NU    

METAR CYSK 131800Z 13005KT 10SM -SN FEW015 BKN030 M07/M08 A2979 RMK SC2SC4 SLP092=
METAR CYSK 131700Z 15004KT 8SM -SN BKN015 BKN030 M07/M08 A2980 RMK SC5SC2 SLP097=
METAR CYSK 131600Z 15004KT 6SM -SN OVC014 M07/M08 A2982 RMK SC8 SLP102=

CYSK - No TAF is issued for this station

Your time UTC time
Weather data provided by Environment Canada and NAV CANADA